Time;durP1;ratioP1;P1;durP2;ratioP2;P2;SDS_P1;SDS_P2;PMS_P1;PMS_P2;Temp;Humidity;BMP_temperature;BMP_pressure;BME280_temperature;BME280_humidity;BME280_pressure;Samples;Min_cycle;Max_cycle;Signal;HPM_P1;HPM_P2
2023/04/09 00:01:36;;;;;;;4.70;4.20;;;6.60;99.90;;;;;;4968469;28;20220;-73
2023/04/09 00:04:03;;;;;;;4.72;4.30;;;6.60;99.90;;;;;;4972722;28;20215;-73
2023/04/09 00:06:30;;;;;;;5.65;4.20;;;6.60;99.90;;;;;;4971391;28;20212;-73
2023/04/09 00:08:58;;;;;;;6.60;6.05;;;6.60;99.90;;;;;;4971425;28;20207;-73
2023/04/09 00:11:25;;;;;;;5.60;4.30;;;6.50;99.90;;;;;;4971386;28;20780;-73
2023/04/09 00:13:52;;;;;;;6.20;3.72;;;6.60;99.90;;;;;;4971708;28;20232;-73
2023/04/09 00:16:19;;;;;;;5.82;4.63;;;6.60;99.90;;;;;;4971178;28;20224;-73
2023/04/09 00:18:46;;;;;;;8.15;5.65;;;6.50;99.90;;;;;;4971771;28;20207;-71
2023/04/09 00:21:12;;;;;;;7.95;5.80;;;6.50;99.90;;;;;;4971463;28;20234;-72
2023/04/09 00:23:39;;;;;;;6.28;4.25;;;6.50;99.90;;;;;;4970963;28;20617;-72
2023/04/09 00:26:07;;;;;;;5.50;4.22;;;6.40;99.90;;;;;;4971456;28;20226;-72
2023/04/09 00:28:34;;;;;;;5.63;4.70;;;6.40;99.90;;;;;;4971044;28;20210;-72
2023/04/09 00:31:01;;;;;;;5.57;3.95;;;6.50;99.90;;;;;;4971907;28;20226;-72
2023/04/09 00:33:28;;;;;;;5.75;5.15;;;6.50;99.90;;;;;;4971286;28;20196;-72
2023/04/09 00:35:55;;;;;;;4.53;4.20;;;6.50;99.90;;;;;;4970878;28;20237;-72
2023/04/09 00:38:22;;;;;;;4.85;4.35;;;6.50;99.90;;;;;;4970497;28;20202;-72
2023/04/09 00:40:50;;;;;;;6.28;4.60;;;6.60;99.90;;;;;;4971126;28;20228;-72
2023/04/09 00:43:20;;;;;;;6.10;4.00;;;6.60;99.90;;;;;;4971470;28;20217;-72
2023/04/09 00:45:47;;;;;;;4.68;3.60;;;6.60;99.90;;;;;;4971243;28;20223;-72
2023/04/09 00:48:15;;;;;;;5.32;3.88;;;6.60;99.90;;;;;;4970005;28;20221;-72
2023/04/09 00:50:42;;;;;;;8.63;5.60;;;6.60;99.90;;;;;;4971109;28;20228;-72
2023/04/09 00:53:10;;;;;;;8.02;4.85;;;6.60;99.90;;;;;;4970949;28;20195;-72
2023/04/09 00:55:39;;;;;;;6.50;4.82;;;6.50;99.90;;;;;;4970414;28;20725;-72
2023/04/09 00:58:06;;;;;;;5.68;4.65;;;6.60;99.90;;;;;;4971003;28;20200;-72
2023/04/09 01:00:34;;;;;;;5.40;4.90;;;6.60;99.90;;;;;;4970265;28;20225;-72
2023/04/09 01:03:01;;;;;;;5.25;3.40;;;6.60;99.90;;;;;;4970895;28;20214;-72
2023/04/09 01:05:43;;;;;;;6.97;5.35;;;6.50;99.90;;;;;;4970267;28;20224;-72
2023/04/09 01:08:22;;;;;;;3.90;3.60;;;6.60;99.90;;;;;;4968845;28;20200;-72
2023/04/09 01:10:57;;;;;;;10.07;6.20;;;6.60;99.90;;;;;;4970810;28;20274;-71
2023/04/09 01:13:34;;;;;;;8.23;5.82;;;6.60;99.90;;;;;;4970133;28;20198;-72
2023/04/09 01:16:04;;;;;;;5.72;5.20;;;6.60;99.90;;;;;;4970686;28;20228;-72
2023/04/09 01:18:39;;;;;;;5.93;5.10;;;6.60;99.90;;;;;;4970058;28;20206;-72
2023/04/09 01:21:10;;;;;;;6.53;5.93;;;6.70;99.90;;;;;;4970633;28;20224;-72
2023/04/09 01:23:46;;;;;;;6.97;4.53;;;6.70;99.90;;;;;;4970551;28;20634;-72
2023/04/09 01:26:22;;;;;;;6.40;5.70;;;6.70;99.90;;;;;;4970047;28;20706;-72
2023/04/09 01:28:54;;;;;;;5.20;4.15;;;6.70;99.90;;;;;;4969822;28;20666;-71
2023/04/09 01:31:26;;;;;;;5.47;4.53;;;6.80;99.90;;;;;;4969738;28;20219;-72
2023/04/09 01:33:54;;;;;;;10.48;4.72;;;6.70;99.90;;;;;;4970551;28;20205;-72
2023/04/09 01:36:23;;;;;;;6.10;4.35;;;6.70;99.90;;;;;;4969984;28;20275;-72
2023/04/09 01:38:51;;;;;;;5.03;3.30;;;6.70;99.90;;;;;;4969511;28;20206;-72
2023/04/09 01:41:21;;;;;;;5.22;4.50;;;6.70;99.90;;;;;;4969983;28;20215;-72
2023/04/09 01:43:50;;;;;;;7.50;6.15;;;6.70;99.90;;;;;;4970231;28;20301;-72
2023/04/09 01:46:21;;;;;;;6.80;4.65;;;6.70;99.90;;;;;;4970179;28;20293;-72
2023/04/09 01:48:49;;;;;;;7.03;4.40;;;6.70;99.90;;;;;;4969620;28;20294;-72
2023/04/09 01:51:18;;;;;;;4.43;3.70;;;6.70;99.90;;;;;;4969390;28;20326;-72
2023/04/09 01:53:47;;;;;;;4.05;3.72;;;6.60;99.90;;;;;;4969920;28;20202;-72
2023/04/09 01:56:14;;;;;;;4.40;3.60;;;6.60;99.90;;;;;;4969672;28;20242;-72
2023/04/09 01:58:41;;;;;;;7.32;4.57;;;6.60;99.90;;;;;;4970091;28;20255;-72
2023/04/09 02:01:12;;;;;;;4.05;3.65;;;6.60;99.90;;;;;;4969663;28;20236;-72
2023/04/09 02:03:48;;;;;;;7.18;5.00;;;6.60;99.90;;;;;;4969600;28;20205;-72
2023/04/09 02:06:22;;;;;;;6.85;4.97;;;6.60;99.90;;;;;;4969484;28;20227;-72
2023/04/09 02:08:52;;;;;;;7.00;4.80;;;6.60;99.90;;;;;;4969389;28;20207;-72
2023/04/09 02:11:23;;;;;;;6.78;3.55;;;6.60;99.90;;;;;;4969737;28;20717;-72
2023/04/09 02:13:53;;;;;;;5.07;4.25;;;6.60;99.90;;;;;;4969343;28;20201;-72
2023/04/09 02:16:21;;;;;;;7.05;4.80;;;6.50;99.90;;;;;;4968516;28;20600;-72
2023/04/09 02:18:53;;;;;;;8.27;5.40;;;6.60;99.90;;;;;;4969474;28;20616;-72
2023/04/09 02:21:20;;;;;;;6.35;4.15;;;6.50;99.90;;;;;;4969226;28;20227;-72
2023/04/09 02:23:47;;;;;;;7.50;6.57;;;6.50;99.90;;;;;;4968928;28;20214;-72
2023/04/09 02:26:14;;;;;;;5.40;4.70;;;6.60;99.90;;;;;;4968748;28;20626;-72
2023/04/09 02:28:41;;;;;;;5.55;4.55;;;6.50;99.90;;;;;;4953733;28;20260;-72
2023/04/09 02:31:10;;;;;;;6.53;5.45;;;6.50;99.90;;;;;;4958751;28;20249;-72
2023/04/09 02:33:37;;;;;;;8.50;6.43;;;6.50;99.90;;;;;;4969950;28;20231;-73
2023/04/09 02:36:06;;;;;;;4.32;3.38;;;6.50;99.90;;;;;;4968655;28;20230;-72
2023/04/09 02:38:34;;;;;;;19.25;5.95;;;6.50;99.90;;;;;;4969024;28;20618;-72
2023/04/09 02:41:02;;;;;;;4.80;4.40;;;6.50;99.90;;;;;;4968373;28;20226;-74
2023/04/09 02:43:30;;;;;;;5.68;4.15;;;6.40;99.90;;;;;;4968488;28;20206;-72
2023/04/09 02:45:57;;;;;;;3.75;3.10;;;6.40;99.90;;;;;;4969281;28;20231;-72
2023/04/09 02:48:24;;;;;;;4.30;3.90;;;6.40;99.90;;;;;;4968151;28;20232;-72
2023/04/09 02:50:51;;;;;;;7.65;5.43;;;6.30;99.90;;;;;;4969298;28;20235;-72
2023/04/09 02:53:21;;;;;;;6.15;5.47;;;6.40;99.90;;;;;;4968341;28;20204;-72
2023/04/09 02:55:48;;;;;;;3.55;3.25;;;6.30;99.90;;;;;;4968023;28;20236;-72
2023/04/09 02:58:15;;;;;;;7.72;3.88;;;6.30;99.90;;;;;;4969059;28;20213;-72
2023/04/09 03:00:43;;;;;;;3.20;2.97;;;6.30;99.90;;;;;;4968843;28;20346;-72
2023/04/09 03:03:12;;;;;;;4.57;4.07;;;6.20;99.90;;;;;;4968959;28;20666;-72
2023/04/09 03:05:39;;;;;;;11.15;5.35;;;6.20;99.90;;;;;;4968966;28;20226;-72
2023/04/09 03:08:06;;;;;;;7.00;4.85;;;6.20;99.90;;;;;;4968195;28;20198;-72
2023/04/09 03:10:35;;;;;;;4.90;4.45;;;6.20;99.90;;;;;;4968217;28;20664;-72
2023/04/09 03:13:01;;;;;;;5.15;3.90;;;6.10;99.90;;;;;;4969179;28;20212;-72
2023/04/09 03:15:28;;;;;;;6.22;3.55;;;6.10;99.90;;;;;;4968542;28;20266;-72
2023/04/09 03:17:55;;;;;;;4.43;4.03;;;6.10;99.90;;;;;;4968626;28;20294;-72
2023/04/09 03:20:22;;;;;;;3.65;3.10;;;6.10;99.90;;;;;;4967887;28;20195;-72
2023/04/09 03:22:49;;;;;;;7.03;4.57;;;6.20;99.90;;;;;;4965002;28;20196;-72
2023/04/09 03:25:18;;;;;;;5.97;5.30;;;6.10;99.90;;;;;;4967384;28;20677;-72
2023/04/09 03:27:46;;;;;;;6.75;3.80;;;6.20;99.90;;;;;;4968875;28;20207;-72
2023/04/09 03:30:13;;;;;;;4.00;3.17;;;6.20;99.90;;;;;;4949239;29;20694;-72
2023/04/09 03:32:40;;;;;;;4.95;3.50;;;6.20;99.90;;;;;;4967143;28;20567;-72
2023/04/09 03:35:07;;;;;;;5.70;5.15;;;6.20;99.90;;;;;;4968465;28;20247;-73
2023/04/09 03:37:34;;;;;;;4.50;3.45;;;6.20;99.90;;;;;;4971510;28;20227;-72
2023/04/09 03:40:03;;;;;;;5.18;3.70;;;6.10;99.90;;;;;;4972143;28;20297;-72
2023/04/09 03:42:31;;;;;;;5.03;4.03;;;6.10;99.90;;;;;;4971597;28;20207;-72
2023/04/09 03:44:59;;;;;;;4.75;4.25;;;6.10;99.90;;;;;;4972553;28;20227;-72
2023/04/09 03:47:26;;;;;;;3.33;2.90;;;6.10;99.90;;;;;;4971724;28;20231;-72
2023/04/09 03:49:54;;;;;;;10.98;6.55;;;6.20;99.90;;;;;;4971455;28;20211;-72
2023/04/09 03:52:21;;;;;;;6.80;4.80;;;6.20;99.90;;;;;;4972118;28;20215;-72
2023/04/09 03:54:47;;;;;;;7.03;6.35;;;6.20;99.90;;;;;;4972178;28;20325;-72
2023/04/09 03:57:14;;;;;;;6.72;5.72;;;6.30;99.90;;;;;;4972037;28;20224;-72
2023/04/09 03:59:41;;;;;;;5.05;3.72;;;6.30;99.90;;;;;;4972196;28;20761;-72
2023/04/09 04:02:09;;;;;;;8.75;5.07;;;6.30;99.90;;;;;;4971565;28;20645;-72
2023/04/09 04:04:36;;;;;;;7.47;5.32;;;6.30;99.90;;;;;;4971327;28;20205;-72
2023/04/09 04:07:03;;;;;;;7.65;5.55;;;6.30;99.90;;;;;;4971530;28;20263;-72
2023/04/09 04:09:30;;;;;;;4.93;4.32;;;6.30;99.90;;;;;;4972001;28;20214;-72
2023/04/09 04:11:57;;;;;;;9.95;6.03;;;6.40;99.90;;;;;;4972373;28;20226;-72
2023/04/09 04:14:24;;;;;;;5.53;4.72;;;6.30;99.90;;;;;;4972053;28;20207;-72
2023/04/09 04:16:51;;;;;;;6.85;4.60;;;6.30;99.90;;;;;;4971641;28;20249;-72
2023/04/09 04:19:19;;;;;;;8.07;5.18;;;6.30;99.90;;;;;;4970830;28;20222;-72
2023/04/09 04:21:46;;;;;;;7.15;6.30;;;6.30;99.90;;;;;;4957634;28;20239;-71
2023/04/09 04:24:12;;;;;;;6.32;4.72;;;6.20;99.90;;;;;;4969688;28;20204;-73
2023/04/09 04:26:40;;;;;;;5.20;4.70;;;6.20;99.90;;;;;;4971117;28;20644;-72
2023/04/09 04:29:06;;;;;;;8.05;4.07;;;6.20;99.90;;;;;;4971173;28;20310;-72
2023/04/09 04:31:34;;;;;;;8.30;6.35;;;6.10;99.90;;;;;;4969246;28;20231;-72
2023/04/09 04:34:00;;;;;;;6.68;5.47;;;6.10;99.90;;;;;;4969526;28;20929;-72
2023/04/09 04:36:28;;;;;;;4.47;4.03;;;6.10;99.90;;;;;;4964583;28;20588;-72
2023/04/09 04:38:55;;;;;;;4.07;3.67;;;6.00;99.90;;;;;;4971000;28;20203;-72
2023/04/09 04:41:22;;;;;;;5.50;4.18;;;6.00;99.90;;;;;;4971295;28;20587;-72
2023/04/09 04:43:49;;;;;;;6.28;3.95;;;6.00;99.90;;;;;;4970108;28;20318;-72
2023/04/09 04:46:15;;;;;;;4.55;4.13;;;6.00;99.90;;;;;;4970466;28;20311;-72
2023/04/09 04:48:42;;;;;;;8.32;5.22;;;6.00;99.90;;;;;;4968884;28;22240;-72
2023/04/09 04:51:09;;;;;;;4.90;3.15;;;6.00;99.90;;;;;;4970465;28;20591;-72
2023/04/09 04:53:37;;;;;;;4.88;4.15;;;5.90;99.90;;;;;;4970963;28;20200;-72
2023/04/09 04:56:05;;;;;;;6.30;4.97;;;6.00;99.90;;;;;;4970627;28;20243;-72
2023/04/09 04:58:31;;;;;;;4.53;3.83;;;6.00;99.90;;;;;;4970462;28;20305;-72
2023/04/09 05:00:59;;;;;;;9.00;5.03;;;6.00;99.90;;;;;;4969640;28;20232;-72
2023/04/09 05:03:25;;;;;;;6.20;3.83;;;6.00;99.90;;;;;;4970975;28;20258;-72
2023/04/09 05:05:52;;;;;;;7.00;4.25;;;6.10;99.90;;;;;;4970299;28;20565;-72
2023/04/09 05:08:19;;;;;;;6.07;4.10;;;6.00;99.90;;;;;;4970252;28;20212;-72
2023/04/09 05:10:47;;;;;;;3.72;3.40;;;6.00;99.90;;;;;;4970501;28;20220;-72
2023/04/09 05:13:14;;;;;;;4.57;3.97;;;6.00;99.90;;;;;;4970519;28;20287;-72
2023/04/09 05:15:41;;;;;;;5.78;4.85;;;6.00;99.90;;;;;;4970295;28;20242;-72
2023/04/09 05:18:08;;;;;;;4.63;3.13;;;6.00;99.90;;;;;;4969555;28;20205;-72
2023/04/09 05:20:35;;;;;;;6.60;5.38;;;6.10;99.90;;;;;;4970044;28;20223;-72
2023/04/09 05:23:02;;;;;;;6.63;4.10;;;6.10;99.90;;;;;;4969944;28;20211;-72
2023/04/09 05:25:28;;;;;;;13.75;5.75;;;6.10;99.90;;;;;;4970210;28;20225;-72
2023/04/09 05:27:57;;;;;;;5.55;4.50;;;6.10;99.90;;;;;;4969517;28;20210;-72
2023/04/09 05:30:23;;;;;;;5.55;4.20;;;6.00;99.90;;;;;;4969678;28;20278;-72
2023/04/09 05:32:50;;;;;;;7.68;4.53;;;6.10;99.90;;;;;;4970802;28;20214;-72
2023/04/09 05:35:17;;;;;;;14.65;4.88;;;6.10;99.90;;;;;;4969706;28;20224;-72
2023/04/09 05:37:44;;;;;;;6.60;4.45;;;6.20;99.90;;;;;;4968005;28;20210;-71
2023/04/09 05:40:12;;;;;;;4.97;4.57;;;6.20;99.90;;;;;;4966977;28;20205;-72
2023/04/09 05:42:39;;;;;;;7.78;5.00;;;6.20;99.90;;;;;;4966730;28;20211;-72
2023/04/09 05:45:08;;;;;;;7.72;6.03;;;6.30;99.90;;;;;;4967207;28;20203;-72
2023/04/09 05:47:35;;;;;;;9.75;5.20;;;6.30;99.90;;;;;;4966606;28;20837;-72
2023/04/09 05:50:02;;;;;;;9.10;5.40;;;6.40;99.90;;;;;;4966037;28;20576;-72
2023/04/09 05:52:29;;;;;;;4.57;4.18;;;6.50;99.90;;;;;;4966992;28;20233;-72
2023/04/09 05:54:55;;;;;;;5.68;3.92;;;6.50;99.90;;;;;;4964978;28;20203;-71
2023/04/09 05:57:22;;;;;;;9.82;6.05;;;6.50;99.90;;;;;;4966588;28;20242;-72
2023/04/09 05:59:49;;;;;;;5.38;4.65;;;6.50;99.90;;;;;;4966180;28;20204;-72
2023/04/09 06:02:17;;;;;;;9.73;5.95;;;6.70;99.90;;;;;;4966323;28;20222;-71
2023/04/09 06:04:47;;;;;;;5.25;4.25;;;6.70;99.90;;;;;;4966780;28;20218;-71
2023/04/09 06:07:13;;;;;;;5.72;5.22;;;6.90;99.90;;;;;;4966071;28;20221;-71
2023/04/09 06:09:42;;;;;;;7.93;5.13;;;7.00;99.90;;;;;;4965568;28;20737;-72
2023/04/09 06:12:09;;;;;;;5.05;4.60;;;7.10;99.90;;;;;;4966186;28;20251;-72
2023/04/09 06:14:36;;;;;;;4.32;3.92;;;7.30;99.90;;;;;;4966924;28;20200;-72
2023/04/09 06:17:03;;;;;;;6.55;4.45;;;7.40;99.90;;;;;;4966019;28;20238;-72
2023/04/09 06:19:31;;;;;;;8.75;6.13;;;7.40;99.90;;;;;;4965483;28;20199;-72
2023/04/09 06:21:58;;;;;;;4.15;3.75;;;7.50;99.90;;;;;;4965162;28;20802;-72
2023/04/09 06:24:24;;;;;;;5.57;4.20;;;7.60;99.40;;;;;;4965583;28;20573;-72
2023/04/09 06:26:51;;;;;;;4.88;4.35;;;7.70;99.40;;;;;;4965413;28;20860;-72
2023/04/09 06:29:18;;;;;;;5.22;4.57;;;7.70;99.20;;;;;;4965626;28;20608;-72
2023/04/09 06:31:45;;;;;;;5.70;5.07;;;7.70;98.80;;;;;;4964964;28;20610;-72
2023/04/09 06:34:12;;;;;;;7.15;5.20;;;7.70;98.70;;;;;;4965238;28;20204;-72
2023/04/09 06:36:40;;;;;;;5.82;3.63;;;7.80;98.50;;;;;;4965065;28;20227;-72
2023/04/09 06:39:07;;;;;;;7.53;5.45;;;7.90;98.60;;;;;;4965915;28;20196;-72
2023/04/09 06:41:33;;;;;;;5.25;3.55;;;8.00;98.60;;;;;;4966080;28;20276;-72
2023/04/09 06:44:00;;;;;;;10.02;6.60;;;8.00;98.30;;;;;;4964621;28;20211;-71
2023/04/09 06:46:27;;;;;;;6.97;3.88;;;8.10;98.50;;;;;;4965241;28;20249;-71
2023/04/09 06:48:54;;;;;;;5.32;4.70;;;8.20;98.10;;;;;;4965067;28;20212;-71
2023/04/09 06:51:21;;;;;;;8.68;5.88;;;8.40;97.90;;;;;;4964574;28;20227;-70
2023/04/09 06:53:49;;;;;;;7.13;5.55;;;8.40;97.70;;;;;;4964795;28;20214;-72
2023/04/09 06:56:16;;;;;;;4.90;3.92;;;8.50;97.80;;;;;;4964793;28;20573;-70
2023/04/09 06:58:42;;;;;;;6.43;4.55;;;8.60;97.60;;;;;;4961223;28;20770;-70
2023/04/09 07:01:09;;;;;;;8.35;4.82;;;8.60;97.30;;;;;;4961323;28;20224;-70
2023/04/09 07:03:36;;;;;;;4.90;4.33;;;8.50;97.10;;;;;;4967527;28;20255;-69
2023/04/09 07:06:03;;;;;;;3.97;3.57;;;8.70;97.00;;;;;;4967786;28;21013;-70
2023/04/09 07:08:30;;;;;;;6.30;4.97;;;8.80;97.00;;;;;;4967572;28;20699;-69
2023/04/09 07:10:58;;;;;;;8.30;5.47;;;8.80;96.80;;;;;;4967271;28;20659;-71
2023/04/09 07:13:25;;;;;;;9.73;3.70;;;8.90;96.50;;;;;;4968541;28;20642;-73
2023/04/09 07:15:52;;;;;;;6.30;5.10;;;8.90;96.50;;;;;;4968805;28;20680;-73
2023/04/09 07:18:18;;;;;;;3.60;3.30;;;9.00;96.10;;;;;;4967055;28;21354;-71
2023/04/09 07:20:45;;;;;;;6.10;4.53;;;9.10;95.90;;;;;;4968103;28;21239;-71
2023/04/09 07:23:12;;;;;;;4.37;3.07;;;9.10;95.00;;;;;;4968000;28;21214;-71
2023/04/09 07:25:39;;;;;;;4.93;4.00;;;9.20;95.20;;;;;;4968442;28;20663;-71
2023/04/09 07:28:08;;;;;;;4.67;3.47;;;9.30;94.50;;;;;;4967674;28;20635;-70
2023/04/09 07:30:35;;;;;;;3.97;3.50;;;9.30;93.60;;;;;;4968251;28;20663;-72
2023/04/09 07:33:01;;;;;;;5.10;3.70;;;9.40;92.60;;;;;;4967265;28;21266;-72
2023/04/09 07:35:28;;;;;;;8.83;4.27;;;9.30;92.30;;;;;;4968587;28;21223;-73
2023/04/09 07:37:56;;;;;;;3.93;3.47;;;9.50;92.80;;;;;;4966753;28;21067;-73
2023/04/09 07:40:22;;;;;;;3.43;3.13;;;9.50;92.50;;;;;;4965703;28;20631;-72
2023/04/09 07:42:49;;;;;;;4.33;3.83;;;9.70;92.90;;;;;;4967432;28;20644;-71
2023/04/09 07:45:18;;;;;;;3.60;3.30;;;9.80;92.90;;;;;;4968195;28;20628;-72
2023/04/09 07:47:45;;;;;;;3.80;3.37;;;9.90;92.60;;;;;;4967747;28;20636;-72
2023/04/09 07:50:11;;;;;;;4.20;3.83;;;10.00;91.60;;;;;;4967360;28;21261;-75
2023/04/09 07:52:38;;;;;;;3.37;2.97;;;9.90;90.50;;;;;;4968301;28;20638;-73
2023/04/09 07:55:06;;;;;;;4.13;3.80;;;10.00;88.60;;;;;;4968069;28;20635;-73
2023/04/09 07:57:33;;;;;;;4.00;3.30;;;10.10;87.10;;;;;;4967754;28;20679;-73
2023/04/09 08:00:00;;;;;;;3.57;2.30;;;10.00;86.40;;;;;;4966997;28;20624;-73
2023/04/09 08:02:28;;;;;;;3.73;2.77;;;10.00;85.80;;;;;;4967978;28;21201;-72
2023/04/09 08:04:55;;;;;;;4.17;3.70;;;9.80;86.70;;;;;;4968226;28;20632;-72
2023/04/09 08:07:22;;;;;;;5.23;3.23;;;9.70;86.10;;;;;;4968531;28;20660;-73
2023/04/09 08:09:49;;;;;;;4.73;4.23;;;9.70;85.30;;;;;;4968036;28;20650;-73
2023/04/09 08:12:16;;;;;;;3.20;2.90;;;10.00;85.50;;;;;;4966883;28;20662;-71
2023/04/09 08:14:42;;;;;;;3.77;3.30;;;10.10;84.20;;;;;;4967400;28;20628;-71
2023/04/09 08:17:09;;;;;;;4.40;3.20;;;10.30;84.50;;;;;;4952010;28;20680;-71
2023/04/09 08:19:37;;;;;;;4.10;3.20;;;10.20;85.30;;;;;;4963780;28;20969;-70
2023/04/09 08:22:04;;;;;;;7.00;4.90;;;10.30;87.10;;;;;;4957862;28;20670;-71
2023/04/09 08:24:31;;;;;;;6.27;5.17;;;10.40;85.20;;;;;;4970354;28;20630;-70
2023/04/09 08:26:58;;;;;;;8.60;3.27;;;10.50;86.40;;;;;;4967930;28;20666;-72
2023/04/09 08:29:25;;;;;;;5.77;2.80;;;10.40;85.30;;;;;;4970508;28;20636;-73
2023/04/09 08:31:51;;;;;;;3.33;3.03;;;10.40;83.40;;;;;;4968764;28;20671;-75
2023/04/09 08:34:20;;;;;;;2.23;2.10;;;10.60;81.40;;;;;;4971241;28;20628;-72
2023/04/09 08:36:48;;;;;;;4.30;2.70;;;10.60;81.10;;;;;;4969467;28;20656;-72
2023/04/09 08:39:17;;;;;;;3.10;2.80;;;10.70;80.60;;;;;;4970374;28;20623;-72
2023/04/09 08:41:46;;;;;;;8.63;2.90;;;10.70;82.20;;;;;;4970344;28;21874;-70
2023/04/09 08:44:13;;;;;;;3.13;2.67;;;10.90;79.80;;;;;;4970962;28;20659;-70
2023/04/09 08:46:40;;;;;;;3.43;3.10;;;10.90;81.70;;;;;;4962310;28;21309;-70
2023/04/09 08:49:08;;;;;;;4.90;2.50;;;11.00;81.60;;;;;;4971207;28;20637;-69
2023/04/09 08:51:35;;;;;;;6.30;3.83;;;11.10;81.80;;;;;;4966970;28;20655;-70
2023/04/09 08:54:03;;;;;;;4.00;3.43;;;11.00;82.00;;;;;;4970877;28;20669;-69
2023/04/09 08:56:30;;;;;;;6.80;4.20;;;11.00;83.10;;;;;;4969500;28;21260;-70
2023/04/09 08:59:00;;;;;;;3.07;2.60;;;10.90;83.20;;;;;;4969173;28;20638;-69
2023/04/09 09:01:28;;;;;;;3.50;2.50;;;11.10;77.80;;;;;;4961944;28;20660;-69
2023/04/09 09:04:02;;;;;;;3.30;2.53;;;11.10;77.10;;;;;;4963220;28;20625;-70
2023/04/09 09:06:31;;;;;;;4.63;3.10;;;11.20;76.80;;;;;;4964675;28;20656;-69
2023/04/09 09:09:05;;;;;;;4.73;3.53;;;11.40;75.20;;;;;;4963842;28;20644;-69
2023/04/09 09:11:32;;;;;;;7.83;3.50;;;11.50;75.80;;;;;;4969118;28;20664;-69
2023/04/09 09:14:02;;;;;;;3.87;2.50;;;11.50;76.10;;;;;;4970070;28;20636;-70
2023/04/09 09:16:30;;;;;;;3.93;3.37;;;11.50;77.10;;;;;;4970236;28;20671;-70
2023/04/09 09:18:57;;;;;;;4.43;3.30;;;11.50;76.60;;;;;;4970091;28;20631;-69
2023/04/09 09:21:26;;;;;;;3.67;2.37;;;11.50;74.70;;;;;;4970251;28;20656;-70
2023/04/09 09:23:53;;;;;;;5.47;2.80;;;11.50;74.30;;;;;;4970022;28;20739;-70
2023/04/09 09:26:23;;;;;;;3.40;3.03;;;11.30;72.50;;;;;;4969843;28;20661;-70
2023/04/09 09:28:52;;;;;;;4.47;3.23;;;11.20;72.80;;;;;;4969717;28;20617;-70
2023/04/09 09:31:21;;;;;;;3.30;3.00;;;11.20;73.70;;;;;;4970141;28;20667;-70
2023/04/09 09:33:49;;;;;;;3.70;2.00;;;11.40;71.20;;;;;;4969360;28;21003;-69
2023/04/09 09:36:16;;;;;;;3.17;2.60;;;11.40;69.10;;;;;;4970574;28;20702;-70
2023/04/09 09:38:56;;;;;;;3.50;2.60;;;11.40;71.70;;;;;;4969539;28;20656;-70
2023/04/09 09:41:25;;;;;;;5.80;3.20;;;11.40;72.50;;;;;;4967168;28;21072;-70
2023/04/09 09:43:52;;;;;;;5.00;3.23;;;11.70;73.40;;;;;;4963357;28;20659;-69
2023/04/09 09:46:21;;;;;;;3.83;3.00;;;11.80;72.20;;;;;;4958814;28;20683;-69
2023/04/09 09:48:48;;;;;;;4.43;3.63;;;11.80;73.60;;;;;;4968582;28;20636;-69
2023/04/09 09:51:16;;;;;;;4.00;3.63;;;11.70;72.90;;;;;;4962846;28;20668;-70
2023/04/09 09:53:44;;;;;;;4.57;3.10;;;11.50;73.40;;;;;;4956547;28;20637;-69
2023/04/09 09:56:16;;;;;;;3.07;2.50;;;11.50;72.80;;;;;;4969084;28;20649;-69
2023/04/09 09:58:50;;;;;;;4.40;2.47;;;11.60;74.70;;;;;;4968691;28;20637;-69
2023/04/09 10:01:19;;;;;;;2.10;2.00;;;11.90;73.70;;;;;;4961319;28;20758;-70
2023/04/09 10:03:46;;;;;;;3.00;2.80;;;12.20;75.10;;;;;;4959074;28;20639;-69
2023/04/09 10:06:15;;;;;;;2.00;1.87;;;12.30;71.80;;;;;;4968761;28;20779;-69
2023/04/09 10:08:42;;;;;;;3.30;3.00;;;12.20;70.40;;;;;;4961452;28;20642;-70
2023/04/09 10:11:11;;;;;;;7.73;3.70;;;12.30;72.40;;;;;;4969375;28;20672;-69
2023/04/09 10:13:40;;;;;;;3.03;2.30;;;12.50;68.70;;;;;;4961232;28;20733;-69
2023/04/09 10:16:10;;;;;;;3.80;2.67;;;12.40;67.30;;;;;;4969625;28;20660;-69
2023/04/09 10:18:37;;;;;;;2.63;2.23;;;12.30;65.70;;;;;;4968647;28;21280;-69
2023/04/09 10:21:10;;;;;;;3.07;2.77;;;12.20;66.00;;;;;;4964756;28;20659;-69
2023/04/09 10:23:41;;;;;;;6.33;3.13;;;12.20;68.30;;;;;;4968994;28;20663;-69
2023/04/09 10:26:12;;;;;;;4.50;3.30;;;12.40;67.70;;;;;;4966392;28;20788;-71
2023/04/09 10:28:39;;;;;;;4.47;2.50;;;12.40;66.10;;;;;;4966404;28;20655;-70
2023/04/09 10:31:08;;;;;;;4.30;3.10;;;12.50;66.50;;;;;;4967961;28;20653;-70
2023/04/09 10:33:37;;;;;;;6.93;3.10;;;12.50;67.00;;;;;;4965563;28;20862;-70
2023/04/09 10:36:09;;;;;;;6.20;2.47;;;12.60;65.10;;;;;;4966320;28;20676;-72
2023/04/09 10:38:39;;;;;;;2.80;2.23;;;12.70;64.40;;;;;;4956929;28;20703;-76
2023/04/09 10:41:21;;;;;;;2.87;2.13;;;12.80;63.80;;;;;;4969064;28;20669;-77
2023/04/09 10:43:48;;;;;;;2.00;1.90;;;12.70;63.80;;;;;;4968178;28;21188;-77
2023/04/09 10:46:31;;;;;;;2.60;1.93;;;12.50;64.30;;;;;;4967867;28;21019;-76
2023/04/09 10:49:12;;;;;;;4.07;1.70;;;12.60;63.40;;;;;;4963978;28;20637;-78
2023/04/09 10:51:39;;;;;;;2.53;2.00;;;12.60;59.20;;;;;;4957836;28;20714;-77
2023/04/09 10:54:07;;;;;;;3.23;2.30;;;12.50;60.40;;;;;;4968668;28;20650;-77
2023/04/09 10:56:34;;;;;;;2.53;2.00;;;12.40;61.90;;;;;;4959287;28;20883;-77
2023/04/09 10:59:02;;;;;;;1.57;1.47;;;12.40;60.70;;;;;;4966619;28;20637;-75
2023/04/09 11:01:31;;;;;;;2.00;1.90;;;12.70;58.60;;;;;;4967995;28;21315;-81
2023/04/09 11:04:11;;;;;;;2.80;2.10;;;12.80;58.20;;;;;;4965618;28;20705;-77
2023/04/09 11:06:42;;;;;;;2.40;2.10;;;12.80;58.70;;;;;;4963265;28;20811;-77
2023/04/09 11:09:09;;;;;;;3.50;2.47;;;12.90;60.10;;;;;;4967036;28;21052;-77
2023/04/09 11:11:35;;;;;;;1.97;1.77;;;12.80;60.50;;;;;;4967163;28;20664;-77
2023/04/09 11:14:02;;;;;;;3.27;2.30;;;12.80;59.50;;;;;;4968097;28;21327;-77
2023/04/09 11:16:31;;;;;;;2.60;2.20;;;13.00;60.30;;;;;;4968626;28;20674;-76
2023/04/09 11:18:58;;;;;;;2.60;1.57;;;13.20;59.60;;;;;;4968414;28;20681;-77
2023/04/09 11:21:27;;;;;;;2.50;1.90;;;13.40;59.90;;;;;;4960772;28;20662;-76
2023/04/09 11:23:54;;;;;;;3.10;2.40;;;13.70;58.70;;;;;;4968076;28;20637;-77
2023/04/09 11:26:24;;;;;;;2.83;2.60;;;13.80;59.00;;;;;;4967807;28;21494;-78
2023/04/09 11:28:55;;;;;;;3.40;2.77;;;13.90;58.70;;;;;;4968500;28;21205;-77
2023/04/09 11:31:27;;;;;;;4.40;2.60;;;13.90;59.40;;;;;;4968725;28;20654;-77
2023/04/09 11:33:55;;;;;;;2.63;2.30;;;14.10;58.40;;;;;;4968297;28;20636;-77
2023/04/09 11:36:22;;;;;;;3.47;3.17;;;14.30;58.40;;;;;;4968601;28;20772;-77
2023/04/09 11:38:50;;;;;;;3.30;2.10;;;14.60;57.60;;;;;;4967459;28;20669;-77
2023/04/09 11:41:17;;;;;;;2.73;1.73;;;14.70;57.60;;;;;;4968250;28;20654;-78
2023/04/09 11:43:43;;;;;;;3.43;2.80;;;14.90;57.80;;;;;;4968194;28;20649;-78
2023/04/09 11:46:10;;;;;;;3.47;3.00;;;14.70;57.00;;;;;;4968643;28;21214;-77
2023/04/09 11:48:37;;;;;;;2.70;2.50;;;14.30;57.80;;;;;;4967850;28;20639;-78
2023/04/09 11:51:06;;;;;;;3.90;2.80;;;14.00;58.20;;;;;;4968258;28;20696;-78
2023/04/09 11:53:33;;;;;;;3.60;2.53;;;14.00;58.50;;;;;;4968002;28;21235;-77
2023/04/09 11:56:00;;;;;;;2.27;2.10;;;13.70;58.20;;;;;;4965767;28;21261;-76
2023/04/09 11:58:27;;;;;;;3.50;2.90;;;14.30;59.10;;;;;;4969582;28;20684;-75
2023/04/09 12:00:55;;;;;;;4.10;3.00;;;15.60;58.30;;;;;;4971261;28;20667;-75
2023/04/09 12:03:29;;;;;;;3.07;2.40;;;16.80;55.60;;;;;;4970557;28;20641;-73
2023/04/09 12:05:56;;;;;;;2.67;2.47;;;17.40;54.30;;;;;;4966026;28;21065;-72
2023/04/09 12:08:24;;;;;;;2.60;2.40;;;17.10;52.80;;;;;;4965007;28;20637;-72
2023/04/09 12:10:51;;;;;;;3.47;2.70;;;16.40;51.60;;;;;;4965908;28;20662;-72
2023/04/09 12:13:19;;;;;;;4.20;2.80;;;15.90;52.60;;;;;;4969025;28;20634;-75
2023/04/09 12:15:49;;;;;;;2.67;2.47;;;15.70;52.60;;;;;;4971917;28;20714;-77
2023/04/09 12:18:15;;;;;;;2.73;2.47;;;15.30;53.00;;;;;;4971253;28;20653;-80
2023/04/09 12:20:43;;;;;;;3.40;2.60;;;15.10;54.20;;;;;;4972416;28;20749;-77
2023/04/09 12:23:12;;;;;;;3.60;2.30;;;14.70;53.90;;;;;;4971593;28;20665;-78
2023/04/09 12:25:42;;;;;;;3.00;2.57;;;14.20;54.50;;;;;;4971789;28;20657;-78
2023/04/09 12:28:12;;;;;;;2.80;2.43;;;14.00;54.60;;;;;;4971534;28;20639;-81
2023/04/09 12:30:39;;;;;;;3.10;2.37;;;13.90;55.10;;;;;;4971495;28;20752;-79
2023/04/09 12:33:06;;;;;;;3.10;2.80;;;14.00;55.40;;;;;;4971350;28;20691;-77
2023/04/09 12:35:33;;;;;;;2.80;2.37;;;14.00;56.00;;;;;;4971939;28;20718;-79
2023/04/09 12:38:00;;;;;;;2.90;2.70;;;13.80;55.80;;;;;;4970592;28;21417;-77
2023/04/09 12:40:28;;;;;;;2.37;2.00;;;13.70;55.40;;;;;;4971224;28;20654;-75
2023/04/09 12:42:56;;;;;;;3.30;3.00;;;13.80;56.60;;;;;;4970806;28;20631;-75
2023/04/09 12:45:23;;;;;;;3.80;2.20;;;14.00;56.60;;;;;;4970850;28;20825;-78
2023/04/09 12:47:50;;;;;;;2.60;2.33;;;14.10;55.20;;;;;;4971495;28;20628;-81
2023/04/09 12:50:17;;;;;;;2.97;2.13;;;14.20;56.20;;;;;;4971324;28;20647;-76
2023/04/09 12:52:44;;;;;;;4.80;2.23;;;14.20;56.10;;;;;;4971013;28;20629;-82
2023/04/09 12:55:12;;;;;;;2.90;2.63;;;14.40;55.30;;;;;;4972075;28;20674;-78
2023/04/09 12:57:39;;;;;;;3.30;3.00;;;14.50;55.10;;;;;;4971290;28;20665;-81